sensor_id;sensor_type;location;lat;lon;timestamp;P1;durP1;ratioP1;P2;durP2;ratioP2
25111;SDS011;13092;51.996;4.458;2023-02-22T00:02:02;70.05;;;47.38;;
25111;SDS011;13092;51.996;4.458;2023-02-22T00:04:48;70.43;;;46.38;;
25111;SDS011;13092;51.996;4.458;2023-02-22T00:07:16;72.47;;;47.60;;
25111;SDS011;13092;51.996;4.458;2023-02-22T00:09:46;72.00;;;48.00;;
25111;SDS011;13092;51.996;4.458;2023-02-22T00:12:14;73.20;;;48.58;;
25111;SDS011;13092;51.996;4.458;2023-02-22T00:14:42;70.40;;;47.95;;
25111;SDS011;13092;51.996;4.458;2023-02-22T00:17:10;70.68;;;47.55;;
25111;SDS011;13092;51.996;4.458;2023-02-22T00:19:39;73.85;;;48.05;;
25111;SDS011;13092;51.996;4.458;2023-02-22T00:22:08;72.85;;;48.47;;
25111;SDS011;13092;51.996;4.458;2023-02-22T00:24:36;76.30;;;48.55;;
25111;SDS011;13092;51.996;4.458;2023-02-22T00:27:04;73.47;;;49.92;;
25111;SDS011;13092;51.996;4.458;2023-02-22T00:29:32;73.30;;;49.45;;
25111;SDS011;13092;51.996;4.458;2023-02-22T00:32:00;74.15;;;48.78;;
25111;SDS011;13092;51.996;4.458;2023-02-22T00:34:29;75.97;;;49.63;;
25111;SDS011;13092;51.996;4.458;2023-02-22T00:36:57;69.80;;;47.40;;
25111;SDS011;13092;51.996;4.458;2023-02-22T00:39:29;74.17;;;50.77;;
25111;SDS011;13092;51.996;4.458;2023-02-22T00:41:57;106.53;;;61.00;;
25111;SDS011;13092;51.996;4.458;2023-02-22T00:44:26;128.00;;;71.88;;
25111;SDS011;13092;51.996;4.458;2023-02-22T00:46:54;132.88;;;73.20;;
25111;SDS011;13092;51.996;4.458;2023-02-22T00:49:22;113.25;;;66.55;;
25111;SDS011;13092;51.996;4.458;2023-02-22T00:51:51;109.10;;;66.05;;
25111;SDS011;13092;51.996;4.458;2023-02-22T00:54:20;109.28;;;66.50;;
25111;SDS011;13092;51.996;4.458;2023-02-22T00:56:49;97.80;;;61.33;;
25111;SDS011;13092;51.996;4.458;2023-02-22T00:59:17;83.20;;;53.20;;
25111;SDS011;13092;51.996;4.458;2023-02-22T01:01:45;75.40;;;51.55;;
25111;SDS011;13092;51.996;4.458;2023-02-22T01:04:13;71.97;;;49.37;;
25111;SDS011;13092;51.996;4.458;2023-02-22T01:06:43;69.28;;;49.03;;
25111;SDS011;13092;51.996;4.458;2023-02-22T01:09:11;68.55;;;48.63;;
25111;SDS011;13092;51.996;4.458;2023-02-22T01:11:40;66.30;;;48.13;;
25111;SDS011;13092;51.996;4.458;2023-02-22T01:14:09;65.35;;;48.35;;
25111;SDS011;13092;51.996;4.458;2023-02-22T01:16:37;65.07;;;47.28;;
25111;SDS011;13092;51.996;4.458;2023-02-22T01:19:05;66.63;;;47.57;;
25111;SDS011;13092;51.996;4.458;2023-02-22T01:21:33;66.37;;;46.97;;
25111;SDS011;13092;51.996;4.458;2023-02-22T01:24:02;65.80;;;46.72;;
25111;SDS011;13092;51.996;4.458;2023-02-22T01:26:30;63.50;;;47.97;;
25111;SDS011;13092;51.996;4.458;2023-02-22T01:28:58;64.05;;;46.38;;
25111;SDS011;13092;51.996;4.458;2023-02-22T01:31:28;67.47;;;48.00;;
25111;SDS011;13092;51.996;4.458;2023-02-22T01:33:57;61.87;;;46.70;;
25111;SDS011;13092;51.996;4.458;2023-02-22T01:36:25;66.63;;;48.43;;
25111;SDS011;13092;51.996;4.458;2023-02-22T01:38:54;66.93;;;48.40;;
25111;SDS011;13092;51.996;4.458;2023-02-22T01:41:22;65.57;;;47.70;;
25111;SDS011;13092;51.996;4.458;2023-02-22T01:43:51;66.15;;;47.92;;
25111;SDS011;13092;51.996;4.458;2023-02-22T01:46:21;74.43;;;51.27;;
25111;SDS011;13092;51.996;4.458;2023-02-22T01:48:53;66.30;;;49.87;;
25111;SDS011;13092;51.996;4.458;2023-02-22T01:51:24;68.87;;;48.83;;
25111;SDS011;13092;51.996;4.458;2023-02-22T01:53:58;68.30;;;48.83;;
25111;SDS011;13092;51.996;4.458;2023-02-22T01:56:31;64.80;;;48.60;;
25111;SDS011;13092;51.996;4.458;2023-02-22T01:59:04;67.73;;;48.77;;
25111;SDS011;13092;51.996;4.458;2023-02-22T02:01:35;66.97;;;48.07;;
25111;SDS011;13092;51.996;4.458;2023-02-22T02:04:10;69.10;;;49.87;;
25111;SDS011;13092;51.996;4.458;2023-02-22T02:06:43;71.63;;;49.67;;
25111;SDS011;13092;51.996;4.458;2023-02-22T02:09:13;70.50;;;49.37;;
25111;SDS011;13092;51.996;4.458;2023-02-22T02:11:47;75.23;;;49.67;;
25111;SDS011;13092;51.996;4.458;2023-02-22T02:14:16;66.90;;;48.33;;
25111;SDS011;13092;51.996;4.458;2023-02-22T02:16:46;70.93;;;50.67;;
25111;SDS011;13092;51.996;4.458;2023-02-22T02:19:19;74.00;;;49.80;;
25111;SDS011;13092;51.996;4.458;2023-02-22T02:22:07;81.00;;;50.10;;
25111;SDS011;13092;51.996;4.458;2023-02-22T02:28:04;78.25;;;50.40;;
25111;SDS011;13092;51.996;4.458;2023-02-22T02:30:55;80.50;;;50.57;;
25111;SDS011;13092;51.996;4.458;2023-02-22T02:33:40;72.53;;;49.53;;
25111;SDS011;13092;51.996;4.458;2023-02-22T02:36:12;77.90;;;50.53;;
25111;SDS011;13092;51.996;4.458;2023-02-22T02:38:49;77.63;;;49.33;;
25111;SDS011;13092;51.996;4.458;2023-02-22T02:41:23;77.93;;;50.93;;
25111;SDS011;13092;51.996;4.458;2023-02-22T02:43:58;71.87;;;49.50;;
25111;SDS011;13092;51.996;4.458;2023-02-22T02:46:30;79.03;;;52.40;;
25111;SDS011;13092;51.996;4.458;2023-02-22T02:49:04;78.60;;;51.47;;
25111;SDS011;13092;51.996;4.458;2023-02-22T02:51:37;81.50;;;52.13;;
25111;SDS011;13092;51.996;4.458;2023-02-22T02:54:09;85.63;;;51.70;;
25111;SDS011;13092;51.996;4.458;2023-02-22T02:56:42;78.67;;;52.10;;
25111;SDS011;13092;51.996;4.458;2023-02-22T02:59:23;80.37;;;51.80;;
25111;SDS011;13092;51.996;4.458;2023-02-22T03:01:56;81.33;;;52.83;;
25111;SDS011;13092;51.996;4.458;2023-02-22T03:04:45;91.90;;;55.30;;
25111;SDS011;13092;51.996;4.458;2023-02-22T03:07:31;82.53;;;52.83;;
25111;SDS011;13092;51.996;4.458;2023-02-22T03:10:12;84.80;;;53.30;;
25111;SDS011;13092;51.996;4.458;2023-02-22T03:12:57;92.60;;;55.47;;
25111;SDS011;13092;51.996;4.458;2023-02-22T03:15:34;89.50;;;54.67;;
25111;SDS011;13092;51.996;4.458;2023-02-22T03:18:17;90.83;;;53.57;;
25111;SDS011;13092;51.996;4.458;2023-02-22T03:20:59;87.60;;;54.37;;
25111;SDS011;13092;51.996;4.458;2023-02-22T03:23:36;86.93;;;52.60;;
25111;SDS011;13092;51.996;4.458;2023-02-22T03:26:13;90.57;;;54.03;;
25111;SDS011;13092;51.996;4.458;2023-02-22T03:28:53;88.00;;;52.67;;
25111;SDS011;13092;51.996;4.458;2023-02-22T03:31:24;93.57;;;54.83;;
25111;SDS011;13092;51.996;4.458;2023-02-22T03:34:03;89.40;;;54.53;;
25111;SDS011;13092;51.996;4.458;2023-02-22T03:36:37;88.40;;;53.97;;
25111;SDS011;13092;51.996;4.458;2023-02-22T03:39:12;88.87;;;54.40;;
25111;SDS011;13092;51.996;4.458;2023-02-22T03:41:44;92.03;;;53.20;;
25111;SDS011;13092;51.996;4.458;2023-02-22T03:44:17;83.47;;;51.57;;
25111;SDS011;13092;51.996;4.458;2023-02-22T03:46:50;93.83;;;54.23;;
25111;SDS011;13092;51.996;4.458;2023-02-22T03:49:24;87.70;;;53.80;;
25111;SDS011;13092;51.996;4.458;2023-02-22T03:52:00;93.00;;;52.77;;
25111;SDS011;13092;51.996;4.458;2023-02-22T03:54:29;76.50;;;50.63;;
25111;SDS011;13092;51.996;4.458;2023-02-22T03:57:02;86.00;;;52.37;;
25111;SDS011;13092;51.996;4.458;2023-02-22T03:59:35;84.60;;;52.40;;
25111;SDS011;13092;51.996;4.458;2023-02-22T04:02:05;89.80;;;53.20;;
25111;SDS011;13092;51.996;4.458;2023-02-22T04:04:34;93.73;;;52.77;;
25111;SDS011;13092;51.996;4.458;2023-02-22T04:07:07;100.73;;;54.67;;
25111;SDS011;13092;51.996;4.458;2023-02-22T04:09:36;98.07;;;53.07;;
25111;SDS011;13092;51.996;4.458;2023-02-22T04:12:05;79.90;;;51.93;;
25111;SDS011;13092;51.996;4.458;2023-02-22T04:14:37;83.20;;;51.00;;
25111;SDS011;13092;51.996;4.458;2023-02-22T04:17:08;81.00;;;51.33;;
25111;SDS011;13092;51.996;4.458;2023-02-22T04:19:36;95.73;;;53.57;;
25111;SDS011;13092;51.996;4.458;2023-02-22T04:22:05;94.03;;;53.27;;
25111;SDS011;13092;51.996;4.458;2023-02-22T04:24:35;96.60;;;53.87;;
25111;SDS011;13092;51.996;4.458;2023-02-22T04:27:04;102.13;;;54.30;;
25111;SDS011;13092;51.996;4.458;2023-02-22T04:29:32;106.47;;;53.40;;
25111;SDS011;13092;51.996;4.458;2023-02-22T04:32:01;77.57;;;50.03;;
25111;SDS011;13092;51.996;4.458;2023-02-22T04:34:32;90.57;;;51.97;;
25111;SDS011;13092;51.996;4.458;2023-02-22T04:37:01;90.93;;;50.90;;
25111;SDS011;13092;51.996;4.458;2023-02-22T04:39:29;92.63;;;53.67;;
25111;SDS011;13092;51.996;4.458;2023-02-22T04:41:59;87.63;;;50.60;;
25111;SDS011;13092;51.996;4.458;2023-02-22T04:44:28;96.87;;;52.37;;
25111;SDS011;13092;51.996;4.458;2023-02-22T04:46:58;114.97;;;53.87;;
25111;SDS011;13092;51.996;4.458;2023-02-22T04:49:28;94.93;;;52.50;;
25111;SDS011;13092;51.996;4.458;2023-02-22T04:51:58;95.80;;;51.17;;
25111;SDS011;13092;51.996;4.458;2023-02-22T04:54:26;114.90;;;56.17;;
25111;SDS011;13092;51.996;4.458;2023-02-22T04:56:55;105.03;;;54.20;;
25111;SDS011;13092;51.996;4.458;2023-02-22T04:59:25;99.77;;;52.30;;
25111;SDS011;13092;51.996;4.458;2023-02-22T05:01:53;132.90;;;56.63;;
25111;SDS011;13092;51.996;4.458;2023-02-22T05:04:22;92.17;;;51.23;;
25111;SDS011;13092;51.996;4.458;2023-02-22T05:06:50;111.50;;;53.77;;
25111;SDS011;13092;51.996;4.458;2023-02-22T05:09:20;101.53;;;53.50;;
25111;SDS011;13092;51.996;4.458;2023-02-22T05:11:49;115.30;;;55.67;;
25111;SDS011;13092;51.996;4.458;2023-02-22T05:14:18;110.07;;;51.67;;
25111;SDS011;13092;51.996;4.458;2023-02-22T05:16:49;104.27;;;51.57;;
25111;SDS011;13092;51.996;4.458;2023-02-22T05:19:18;111.27;;;52.27;;
25111;SDS011;13092;51.996;4.458;2023-02-22T05:21:47;140.63;;;53.77;;
25111;SDS011;13092;51.996;4.458;2023-02-22T05:24:18;116.73;;;50.73;;
25111;SDS011;13092;51.996;4.458;2023-02-22T05:26:48;105.13;;;48.53;;
25111;SDS011;13092;51.996;4.458;2023-02-22T05:29:18;145.50;;;50.43;;
25111;SDS011;13092;51.996;4.458;2023-02-22T05:31:48;168.90;;;53.87;;
25111;SDS011;13092;51.996;4.458;2023-02-22T05:34:17;184.43;;;53.87;;
25111;SDS011;13092;51.996;4.458;2023-02-22T05:36:45;75.73;;;43.43;;
25111;SDS011;13092;51.996;4.458;2023-02-22T05:39:13;69.03;;;42.83;;
25111;SDS011;13092;51.996;4.458;2023-02-22T05:41:42;65.83;;;41.50;;
25111;SDS011;13092;51.996;4.458;2023-02-22T05:44:11;70.40;;;42.70;;
25111;SDS011;13092;51.996;4.458;2023-02-22T05:46:39;71.23;;;43.27;;
25111;SDS011;13092;51.996;4.458;2023-02-22T05:49:09;69.47;;;41.63;;
25111;SDS011;13092;51.996;4.458;2023-02-22T05:51:38;66.83;;;40.27;;
25111;SDS011;13092;51.996;4.458;2023-02-22T05:54:07;81.67;;;42.63;;
25111;SDS011;13092;51.996;4.458;2023-02-22T05:56:35;65.63;;;41.37;;
25111;SDS011;13092;51.996;4.458;2023-02-22T05:59:04;94.57;;;44.70;;
25111;SDS011;13092;51.996;4.458;2023-02-22T06:01:32;84.00;;;42.70;;
25111;SDS011;13092;51.996;4.458;2023-02-22T06:04:00;71.10;;;42.70;;
25111;SDS011;13092;51.996;4.458;2023-02-22T06:06:30;85.03;;;43.00;;
25111;SDS011;13092;51.996;4.458;2023-02-22T06:08:59;87.97;;;44.63;;
25111;SDS011;13092;51.996;4.458;2023-02-22T06:11:27;90.93;;;42.73;;
25111;SDS011;13092;51.996;4.458;2023-02-22T06:13:56;65.67;;;40.27;;
25111;SDS011;13092;51.996;4.458;2023-02-22T06:16:25;74.67;;;40.80;;
25111;SDS011;13092;51.996;4.458;2023-02-22T06:18:54;95.40;;;44.03;;
25111;SDS011;13092;51.996;4.458;2023-02-22T06:21:23;84.43;;;43.83;;
25111;SDS011;13092;51.996;4.458;2023-02-22T06:23:56;60.97;;;40.33;;
25111;SDS011;13092;51.996;4.458;2023-02-22T06:26:24;69.67;;;40.73;;
25111;SDS011;13092;51.996;4.458;2023-02-22T06:28:53;66.70;;;39.57;;
25111;SDS011;13092;51.996;4.458;2023-02-22T06:31:22;75.60;;;42.07;;
25111;SDS011;13092;51.996;4.458;2023-02-22T06:33:50;62.80;;;40.53;;
25111;SDS011;13092;51.996;4.458;2023-02-22T06:36:19;67.07;;;40.70;;
25111;SDS011;13092;51.996;4.458;2023-02-22T06:38:47;66.87;;;40.27;;
25111;SDS011;13092;51.996;4.458;2023-02-22T06:41:17;55.03;;;38.30;;
25111;SDS011;13092;51.996;4.458;2023-02-22T06:43:49;68.43;;;39.33;;
25111;SDS011;13092;51.996;4.458;2023-02-22T06:46:21;87.80;;;43.13;;
25111;SDS011;13092;51.996;4.458;2023-02-22T06:48:50;87.63;;;43.03;;
25111;SDS011;13092;51.996;4.458;2023-02-22T06:51:18;70.53;;;40.57;;
25111;SDS011;13092;51.996;4.458;2023-02-22T06:53:47;59.43;;;38.03;;
25111;SDS011;13092;51.996;4.458;2023-02-22T06:56:16;58.30;;;39.47;;
25111;SDS011;13092;51.996;4.458;2023-02-22T06:58:46;54.17;;;37.80;;
25111;SDS011;13092;51.996;4.458;2023-02-22T07:01:15;62.50;;;39.97;;
25111;SDS011;13092;51.996;4.458;2023-02-22T07:03:44;58.90;;;38.33;;
25111;SDS011;13092;51.996;4.458;2023-02-22T07:06:12;50.53;;;38.63;;
25111;SDS011;13092;51.996;4.458;2023-02-22T07:08:41;51.97;;;37.57;;
25111;SDS011;13092;51.996;4.458;2023-02-22T07:11:09;51.00;;;38.87;;
25111;SDS011;13092;51.996;4.458;2023-02-22T07:13:39;50.17;;;37.53;;
25111;SDS011;13092;51.996;4.458;2023-02-22T07:16:13;50.70;;;37.40;;
25111;SDS011;13092;51.996;4.458;2023-02-22T07:18:42;55.03;;;39.83;;
25111;SDS011;13092;51.996;4.458;2023-02-22T07:21:10;52.13;;;39.30;;
25111;SDS011;13092;51.996;4.458;2023-02-22T07:23:40;51.47;;;37.60;;
25111;SDS011;13092;51.996;4.458;2023-02-22T07:26:08;42.00;;;35.73;;
25111;SDS011;13092;51.996;4.458;2023-02-22T07:28:40;48.87;;;37.13;;
25111;SDS011;13092;51.996;4.458;2023-02-22T07:31:08;48.30;;;37.00;;
25111;SDS011;13092;51.996;4.458;2023-02-22T07:33:37;46.53;;;37.53;;
25111;SDS011;13092;51.996;4.458;2023-02-22T07:36:06;44.83;;;35.57;;
25111;SDS011;13092;51.996;4.458;2023-02-22T07:38:37;46.67;;;36.50;;
25111;SDS011;13092;51.996;4.458;2023-02-22T07:41:06;47.60;;;36.33;;
25111;SDS011;13092;51.996;4.458;2023-02-22T07:43:35;46.40;;;36.93;;
25111;SDS011;13092;51.996;4.458;2023-02-22T07:46:05;47.77;;;37.00;;
25111;SDS011;13092;51.996;4.458;2023-02-22T07:48:34;46.47;;;36.43;;
25111;SDS011;13092;51.996;4.458;2023-02-22T07:51:03;46.03;;;37.00;;
25111;SDS011;13092;51.996;4.458;2023-02-22T07:53:32;49.23;;;36.53;;
25111;SDS011;13092;51.996;4.458;2023-02-22T07:56:02;45.87;;;36.20;;
25111;SDS011;13092;51.996;4.458;2023-02-22T07:58:36;52.27;;;37.47;;
25111;SDS011;13092;51.996;4.458;2023-02-22T08:01:06;46.37;;;37.40;;
25111;SDS011;13092;51.996;4.458;2023-02-22T08:03:34;47.23;;;37.07;;
25111;SDS011;13092;51.996;4.458;2023-02-22T08:06:04;45.73;;;36.60;;
25111;SDS011;13092;51.996;4.458;2023-02-22T08:08:34;43.97;;;35.10;;
25111;SDS011;13092;51.996;4.458;2023-02-22T08:11:04;47.37;;;36.47;;
25111;SDS011;13092;51.996;4.458;2023-02-22T08:13:33;42.20;;;34.20;;
25111;SDS011;13092;51.996;4.458;2023-02-22T08:16:02;43.97;;;33.93;;
25111;SDS011;13092;51.996;4.458;2023-02-22T08:18:39;44.73;;;34.47;;
25111;SDS011;13092;51.996;4.458;2023-02-22T08:21:07;44.03;;;35.67;;
25111;SDS011;13092;51.996;4.458;2023-02-22T08:23:36;47.40;;;36.20;;
25111;SDS011;13092;51.996;4.458;2023-02-22T08:26:05;48.40;;;36.10;;
25111;SDS011;13092;51.996;4.458;2023-02-22T08:28:35;47.07;;;35.53;;
25111;SDS011;13092;51.996;4.458;2023-02-22T08:31:04;42.20;;;35.23;;
25111;SDS011;13092;51.996;4.458;2023-02-22T08:33:39;42.80;;;35.00;;
25111;SDS011;13092;51.996;4.458;2023-02-22T08:36:08;44.43;;;35.83;;
25111;SDS011;13092;51.996;4.458;2023-02-22T08:38:40;42.97;;;35.97;;
25111;SDS011;13092;51.996;4.458;2023-02-22T08:41:09;44.17;;;36.03;;
25111;SDS011;13092;51.996;4.458;2023-02-22T08:43:38;45.57;;;36.77;;
25111;SDS011;13092;51.996;4.458;2023-02-22T08:46:07;42.13;;;35.40;;
25111;SDS011;13092;51.996;4.458;2023-02-22T08:48:35;48.33;;;37.17;;
25111;SDS011;13092;51.996;4.458;2023-02-22T08:51:05;44.58;;;36.65;;
25111;SDS011;13092;51.996;4.458;2023-02-22T08:53:35;47.17;;;36.58;;
25111;SDS011;13092;51.996;4.458;2023-02-22T08:56:05;45.70;;;35.80;;
25111;SDS011;13092;51.996;4.458;2023-02-22T08:58:36;45.72;;;36.25;;
25111;SDS011;13092;51.996;4.458;2023-02-22T09:01:04;42.58;;;35.72;;
25111;SDS011;13092;51.996;4.458;2023-02-22T09:03:33;45.25;;;36.05;;
25111;SDS011;13092;51.996;4.458;2023-02-22T09:06:02;43.28;;;35.72;;
25111;SDS011;13092;51.996;4.458;2023-02-22T09:08:37;44.53;;;36.75;;
25111;SDS011;13092;51.996;4.458;2023-02-22T09:11:07;46.83;;;36.53;;
25111;SDS011;13092;51.996;4.458;2023-02-22T09:13:38;44.50;;;36.55;;
25111;SDS011;13092;51.996;4.458;2023-02-22T09:16:07;41.80;;;36.08;;
25111;SDS011;13092;51.996;4.458;2023-02-22T09:18:40;42.60;;;36.47;;
25111;SDS011;13092;51.996;4.458;2023-02-22T09:21:10;42.27;;;35.50;;
25111;SDS011;13092;51.996;4.458;2023-02-22T09:23:45;40.83;;;35.47;;
25111;SDS011;13092;51.996;4.458;2023-02-22T09:26:20;40.15;;;35.45;;
25111;SDS011;13092;51.996;4.458;2023-02-22T09:28:50;40.15;;;35.70;;
25111;SDS011;13092;51.996;4.458;2023-02-22T09:31:18;45.05;;;36.20;;
25111;SDS011;13092;51.996;4.458;2023-02-22T09:33:47;39.15;;;35.05;;
25111;SDS011;13092;51.996;4.458;2023-02-22T09:36:16;41.33;;;34.60;;
25111;SDS011;13092;51.996;4.458;2023-02-22T09:38:48;41.10;;;35.53;;
25111;SDS011;13092;51.996;4.458;2023-02-22T09:41:17;38.15;;;33.97;;
25111;SDS011;13092;51.996;4.458;2023-02-22T09:44:05;39.27;;;34.53;;
25111;SDS011;13092;51.996;4.458;2023-02-22T09:46:45;39.03;;;34.38;;
25111;SDS011;13092;51.996;4.458;2023-02-22T09:49:19;39.63;;;34.80;;
25111;SDS011;13092;51.996;4.458;2023-02-22T09:51:54;40.38;;;36.08;;
25111;SDS011;13092;51.996;4.458;2023-02-22T09:54:32;37.13;;;33.08;;
25111;SDS011;13092;51.996;4.458;2023-02-22T09:57:10;38.85;;;34.33;;
25111;SDS011;13092;51.996;4.458;2023-02-22T09:59:45;40.10;;;35.50;;
25111;SDS011;13092;51.996;4.458;2023-02-22T10:02:25;37.00;;;33.20;;
25111;SDS011;13092;51.996;4.458;2023-02-22T10:04:56;40.08;;;35.55;;
25111;SDS011;13092;51.996;4.458;2023-02-22T10:07:33;37.65;;;33.58;;
25111;SDS011;13092;51.996;4.458;2023-02-22T10:10:09;39.80;;;34.28;;
25111;SDS011;13092;51.996;4.458;2023-02-22T10:12:45;38.80;;;34.70;;
25111;SDS011;13092;51.996;4.458;2023-02-22T10:15:32;39.15;;;35.00;;
25111;SDS011;13092;51.996;4.458;2023-02-22T10:18:37;42.53;;;36.20;;
25111;SDS011;13092;51.996;4.458;2023-02-22T10:21:32;39.35;;;35.20;;
25111;SDS011;13092;51.996;4.458;2023-02-22T10:24:10;40.05;;;35.70;;
25111;SDS011;13092;51.996;4.458;2023-02-22T10:26:52;39.42;;;35.22;;
25111;SDS011;13092;51.996;4.458;2023-02-22T10:29:24;40.47;;;35.67;;
25111;SDS011;13092;51.996;4.458;2023-02-22T10:32:00;41.65;;;35.58;;
25111;SDS011;13092;51.996;4.458;2023-02-22T10:34:32;40.15;;;35.92;;
25111;SDS011;13092;51.996;4.458;2023-02-22T10:37:12;38.85;;;34.20;;
25111;SDS011;13092;51.996;4.458;2023-02-22T10:39:47;38.25;;;34.10;;
25111;SDS011;13092;51.996;4.458;2023-02-22T10:42:25;38.92;;;34.95;;
25111;SDS011;13092;51.996;4.458;2023-02-22T10:44:54;37.83;;;33.83;;
25111;SDS011;13092;51.996;4.458;2023-02-22T10:47:33;39.28;;;35.17;;
25111;SDS011;13092;51.996;4.458;2023-02-22T10:50:03;39.47;;;35.25;;
25111;SDS011;13092;51.996;4.458;2023-02-22T10:52:32;39.08;;;35.03;;
25111;SDS011;13092;51.996;4.458;2023-02-22T10:55:01;37.25;;;33.42;;
25111;SDS011;13092;51.996;4.458;2023-02-22T10:57:43;38.00;;;34.08;;
25111;SDS011;13092;51.996;4.458;2023-02-22T11:00:18;41.00;;;36.45;;
25111;SDS011;13092;51.996;4.458;2023-02-22T11:02:53;40.28;;;35.78;;
25111;SDS011;13092;51.996;4.458;2023-02-22T11:05:28;37.63;;;33.95;;
25111;SDS011;13092;51.996;4.458;2023-02-22T11:10:52;38.15;;;33.90;;
25111;SDS011;13092;51.996;4.458;2023-02-22T11:13:27;37.85;;;34.20;;
25111;SDS011;13092;51.996;4.458;2023-02-22T11:15:59;38.75;;;34.85;;
25111;SDS011;13092;51.996;4.458;2023-02-22T11:18:44;36.90;;;33.20;;
25111;SDS011;13092;51.996;4.458;2023-02-22T11:21:14;38.38;;;34.47;;
25111;SDS011;13092;51.996;4.458;2023-02-22T11:23:50;37.40;;;34.00;;
25111;SDS011;13092;51.996;4.458;2023-02-22T11:26:34;36.65;;;33.13;;
25111;SDS011;13092;51.996;4.458;2023-02-22T11:29:14;36.65;;;33.13;;
25111;SDS011;13092;51.996;4.458;2023-02-22T11:31:46;36.40;;;32.88;;
25111;SDS011;13092;51.996;4.458;2023-02-22T11:34:27;37.63;;;33.92;;
25111;SDS011;13092;51.996;4.458;2023-02-22T11:40:03;38.10;;;34.50;;
25111;SDS011;13092;51.996;4.458;2023-02-22T11:42:39;37.58;;;34.05;;
25111;SDS011;13092;51.996;4.458;2023-02-22T11:45:10;38.08;;;34.50;;
25111;SDS011;13092;51.996;4.458;2023-02-22T11:47:50;38.65;;;35.00;;
25111;SDS011;13092;51.996;4.458;2023-02-22T11:50:24;37.83;;;34.20;;
25111;SDS011;13092;51.996;4.458;2023-02-22T11:53:03;38.92;;;35.33;;
25111;SDS011;13092;51.996;4.458;2023-02-22T11:55:52;39.40;;;35.85;;
25111;SDS011;13092;51.996;4.458;2023-02-22T11:58:31;39.03;;;35.28;;
25111;SDS011;13092;51.996;4.458;2023-02-22T12:01:10;37.67;;;34.28;;
25111;SDS011;13092;51.996;4.458;2023-02-22T12:04:02;39.58;;;35.78;;
25111;SDS011;13092;51.996;4.458;2023-02-22T12:07:04;38.63;;;34.97;;
25111;SDS011;13092;51.996;4.458;2023-02-22T12:09:47;39.60;;;35.83;;
25111;SDS011;13092;51.996;4.458;2023-02-22T12:12:26;40.03;;;35.97;;
25111;SDS011;13092;51.996;4.458;2023-02-22T12:15:02;39.33;;;35.65;;
25111;SDS011;13092;51.996;4.458;2023-02-22T12:17:43;41.78;;;37.75;;
25111;SDS011;13092;51.996;4.458;2023-02-22T12:20:26;40.95;;;37.08;;
25111;SDS011;13092;51.996;4.458;2023-02-22T12:23:06;42.03;;;37.85;;
25111;SDS011;13092;51.996;4.458;2023-02-22T12:25:52;41.15;;;37.13;;
25111;SDS011;13092;51.996;4.458;2023-02-22T12:28:29;41.35;;;37.35;;
25111;SDS011;13092;51.996;4.458;2023-02-22T12:31:04;41.78;;;37.67;;
25111;SDS011;13092;51.996;4.458;2023-02-22T12:33:49;40.55;;;36.55;;
25111;SDS011;13092;51.996;4.458;2023-02-22T12:36:29;41.38;;;37.38;;
25111;SDS011;13092;51.996;4.458;2023-02-22T12:39:11;41.67;;;37.60;;
25111;SDS011;13092;51.996;4.458;2023-02-22T12:42:18;42.10;;;38.05;;
25111;SDS011;13092;51.996;4.458;2023-02-22T12:44:55;41.90;;;37.85;;
25111;SDS011;13092;51.996;4.458;2023-02-22T12:47:33;43.00;;;38.78;;
25111;SDS011;13092;51.996;4.458;2023-02-22T12:50:11;43.50;;;39.42;;
25111;SDS011;13092;51.996;4.458;2023-02-22T12:52:45;43.65;;;39.42;;
25111;SDS011;13092;51.996;4.458;2023-02-22T12:55:19;43.05;;;38.50;;
25111;SDS011;13092;51.996;4.458;2023-02-22T12:57:53;42.67;;;38.58;;
25111;SDS011;13092;51.996;4.458;2023-02-22T13:00:25;42.40;;;38.30;;
25111;SDS011;13092;51.996;4.458;2023-02-22T13:02:59;43.28;;;39.15;;
25111;SDS011;13092;51.996;4.458;2023-02-22T13:05:33;44.13;;;39.63;;
25111;SDS011;13092;51.996;4.458;2023-02-22T13:08:18;44.65;;;40.22;;
25111;SDS011;13092;51.996;4.458;2023-02-22T13:11:00;44.47;;;39.95;;
25111;SDS011;13092;51.996;4.458;2023-02-22T13:13:38;44.50;;;39.95;;
25111;SDS011;13092;51.996;4.458;2023-02-22T13:16:23;45.38;;;40.83;;
25111;SDS011;13092;51.996;4.458;2023-02-22T13:19:06;44.97;;;40.33;;
25111;SDS011;13092;51.996;4.458;2023-02-22T13:21:50;45.28;;;40.55;;
25111;SDS011;13092;51.996;4.458;2023-02-22T13:24:48;44.75;;;40.30;;
25111;SDS011;13092;51.996;4.458;2023-02-22T13:27:34;45.70;;;41.17;;
25111;SDS011;13092;51.996;4.458;2023-02-22T13:30:13;44.75;;;40.33;;
25111;SDS011;13092;51.996;4.458;2023-02-22T13:33:02;43.78;;;39.15;;
25111;SDS011;13092;51.996;4.458;2023-02-22T13:38:57;45.17;;;40.67;;
25111;SDS011;13092;51.996;4.458;2023-02-22T13:41:39;44.15;;;39.65;;
25111;SDS011;13092;51.996;4.458;2023-02-22T13:44:23;43.90;;;39.58;;
25111;SDS011;13092;51.996;4.458;2023-02-22T13:50:28;43.90;;;39.65;;
25111;SDS011;13092;51.996;4.458;2023-02-22T14:03:46;45.58;;;41.38;;
25111;SDS011;13092;51.996;4.458;2023-02-22T14:09:08;43.50;;;39.58;;
25111;SDS011;13092;51.996;4.458;2023-02-22T14:11:45;45.63;;;41.28;;
25111;SDS011;13092;51.996;4.458;2023-02-22T14:14:22;44.83;;;40.63;;
25111;SDS011;13092;51.996;4.458;2023-02-22T14:26:07;47.15;;;42.17;;
25111;SDS011;13092;51.996;4.458;2023-02-22T14:28:39;43.88;;;39.40;;
25111;SDS011;13092;51.996;4.458;2023-02-22T14:31:20;45.22;;;40.78;;
25111;SDS011;13092;51.996;4.458;2023-02-22T14:34:03;44.70;;;40.47;;
25111;SDS011;13092;51.996;4.458;2023-02-22T14:36:43;44.80;;;40.60;;
25111;SDS011;13092;51.996;4.458;2023-02-22T14:39:33;46.58;;;41.67;;
25111;SDS011;13092;51.996;4.458;2023-02-22T14:42:04;46.05;;;41.58;;
25111;SDS011;13092;51.996;4.458;2023-02-22T14:44:51;45.35;;;41.00;;
25111;SDS011;13092;51.996;4.458;2023-02-22T14:47:34;45.72;;;41.28;;
25111;SDS011;13092;51.996;4.458;2023-02-22T14:50:11;47.60;;;42.63;;
25111;SDS011;13092;51.996;4.458;2023-02-22T14:52:54;47.10;;;42.42;;
25111;SDS011;13092;51.996;4.458;2023-02-22T14:55:27;47.10;;;42.42;;
25111;SDS011;13092;51.996;4.458;2023-02-22T14:58:06;48.88;;;44.05;;
25111;SDS011;13092;51.996;4.458;2023-02-22T15:00:49;48.35;;;43.45;;
25111;SDS011;13092;51.996;4.458;2023-02-22T15:03:30;49.03;;;44.03;;
25111;SDS011;13092;51.996;4.458;2023-02-22T15:06:13;50.40;;;45.03;;
25111;SDS011;13092;51.996;4.458;2023-02-22T15:09:03;47.83;;;43.05;;
25111;SDS011;13092;51.996;4.458;2023-02-22T15:11:33;53.75;;;48.00;;
25111;SDS011;13092;51.996;4.458;2023-02-22T15:14:14;54.90;;;48.78;;
25111;SDS011;13092;51.996;4.458;2023-02-22T15:16:52;54.28;;;48.53;;
25111;SDS011;13092;51.996;4.458;2023-02-22T15:19:26;53.90;;;47.60;;
25111;SDS011;13092;51.996;4.458;2023-02-22T15:22:00;51.42;;;45.83;;
25111;SDS011;13092;51.996;4.458;2023-02-22T15:24:36;52.88;;;46.92;;
25111;SDS011;13092;51.996;4.458;2023-02-22T15:27:06;53.28;;;47.50;;
25111;SDS011;13092;51.996;4.458;2023-02-22T15:29:43;54.58;;;48.20;;
25111;SDS011;13092;51.996;4.458;2023-02-22T15:32:18;54.58;;;48.63;;
25111;SDS011;13092;51.996;4.458;2023-02-22T15:35:04;54.88;;;49.05;;
25111;SDS011;13092;51.996;4.458;2023-02-22T15:37:39;53.90;;;48.25;;